sensor_id;sensor_type;location;lat;lon;timestamp;pressure;altitude;pressure_sealevel;temperature;humidity
61898;BME280;47850;50.274;18.908;2023-04-22T00:00:06;97959.62;;;8.29;54.33
61898;BME280;47850;50.274;18.908;2023-04-22T00:03:14;97958.34;;;8.21;55.40
61898;BME280;47850;50.274;18.908;2023-04-22T00:05:42;97959.09;;;8.17;55.22
61898;BME280;47850;50.274;18.908;2023-04-22T00:08:11;97955.90;;;8.14;55.35
61898;BME280;47850;50.274;18.908;2023-04-22T00:10:38;97956.55;;;8.12;55.80
61898;BME280;47850;50.274;18.908;2023-04-22T00:13:06;97961.40;;;8.09;55.84
61898;BME280;47850;50.274;18.908;2023-04-22T00:15:34;97957.71;;;8.08;55.55
61898;BME280;47850;50.274;18.908;2023-04-22T00:18:02;97956.44;;;8.09;55.10
61898;BME280;47850;50.274;18.908;2023-04-22T00:20:30;97959.55;;;8.11;54.69
61898;BME280;47850;50.274;18.908;2023-04-22T00:22:59;97956.16;;;8.10;54.96
61898;BME280;47850;50.274;18.908;2023-04-22T00:25:27;97955.33;;;8.09;55.41
61898;BME280;47850;50.274;18.908;2023-04-22T00:27:54;97954.02;;;8.05;55.14
61898;BME280;47850;50.274;18.908;2023-04-22T00:30:22;97956.49;;;8.03;54.94
61898;BME280;47850;50.274;18.908;2023-04-22T00:32:50;97954.80;;;8.03;55.37
61898;BME280;47850;50.274;18.908;2023-04-22T00:35:17;97955.09;;;8.00;55.75
61898;BME280;47850;50.274;18.908;2023-04-22T00:37:45;97950.48;;;7.98;56.23
61898;BME280;47850;50.274;18.908;2023-04-22T00:40:13;97949.17;;;7.95;56.37
61898;BME280;47850;50.274;18.908;2023-04-22T00:42:41;97951.83;;;7.94;56.28
61898;BME280;47850;50.274;18.908;2023-04-22T00:45:10;97949.36;;;7.93;56.38
61898;BME280;47850;50.274;18.908;2023-04-22T00:47:38;97947.75;;;7.92;56.39
61898;BME280;47850;50.274;18.908;2023-04-22T00:50:06;97946.70;;;7.88;57.07
61898;BME280;47850;50.274;18.908;2023-04-22T00:52:34;97947.66;;;7.81;57.43
61898;BME280;47850;50.274;18.908;2023-04-22T00:55:02;97951.48;;;7.75;57.96
61898;BME280;47850;50.274;18.908;2023-04-22T00:57:30;97948.95;;;7.69;58.04
61898;BME280;47850;50.274;18.908;2023-04-22T00:59:58;97952.50;;;7.64;58.68
61898;BME280;47850;50.274;18.908;2023-04-22T01:02:27;97951.45;;;7.57;58.95
61898;BME280;47850;50.274;18.908;2023-04-22T01:04:55;97952.73;;;7.51;59.32
61898;BME280;47850;50.274;18.908;2023-04-22T01:07:22;97956.23;;;7.46;59.26
61898;BME280;47850;50.274;18.908;2023-04-22T01:09:50;97957.13;;;7.45;59.52
61898;BME280;47850;50.274;18.908;2023-04-22T01:12:18;97953.02;;;7.42;59.60
61898;BME280;47850;50.274;18.908;2023-04-22T01:14:45;97954.50;;;7.41;59.52
61898;BME280;47850;50.274;18.908;2023-04-22T01:17:14;97955.38;;;7.41;59.65
61898;BME280;47850;50.274;18.908;2023-04-22T01:19:42;97953.81;;;7.39;60.04
61898;BME280;47850;50.274;18.908;2023-04-22T01:22:11;97956.02;;;7.39;60.10
61898;BME280;47850;50.274;18.908;2023-04-22T01:24:39;97955.37;;;7.38;60.21
61898;BME280;47850;50.274;18.908;2023-04-22T01:27:07;97953.27;;;7.35;60.39
61898;BME280;47850;50.274;18.908;2023-04-22T01:29:36;97953.61;;;7.31;60.44
61898;BME280;47850;50.274;18.908;2023-04-22T01:32:05;97958.16;;;7.29;60.77
61898;BME280;47850;50.274;18.908;2023-04-22T01:34:32;97955.27;;;7.28;60.66
61898;BME280;47850;50.274;18.908;2023-04-22T01:37:00;97953.02;;;7.26;60.96
61898;BME280;47850;50.274;18.908;2023-04-22T01:39:28;97952.12;;;7.23;60.86
61898;BME280;47850;50.274;18.908;2023-04-22T01:41:56;97951.93;;;7.21;60.38
61898;BME280;47850;50.274;18.908;2023-04-22T01:44:25;97951.87;;;7.21;59.88
61898;BME280;47850;50.274;18.908;2023-04-22T01:46:53;97950.88;;;7.21;59.87
61898;BME280;47850;50.274;18.908;2023-04-22T01:49:21;97954.42;;;7.24;59.12
61898;BME280;47850;50.274;18.908;2023-04-22T01:51:48;97951.73;;;7.25;59.51
61898;BME280;47850;50.274;18.908;2023-04-22T01:54:16;97953.77;;;7.23;60.21
61898;BME280;47850;50.274;18.908;2023-04-22T01:56:53;97955.58;;;7.22;60.42
61898;BME280;47850;50.274;18.908;2023-04-22T01:59:21;97951.98;;;7.18;60.77
61898;BME280;47850;50.274;18.908;2023-04-22T02:01:49;97949.10;;;7.15;60.93
61898;BME280;47850;50.274;18.908;2023-04-22T02:04:16;97950.73;;;7.13;61.05
61898;BME280;47850;50.274;18.908;2023-04-22T02:06:44;97955.10;;;7.11;61.26
61898;BME280;47850;50.274;18.908;2023-04-22T02:09:12;97954.25;;;7.08;60.80
61898;BME280;47850;50.274;18.908;2023-04-22T02:11:39;97955.33;;;7.05;60.24
61898;BME280;47850;50.274;18.908;2023-04-22T02:14:07;97954.63;;;7.05;59.63
61898;BME280;47850;50.274;18.908;2023-04-22T02:16:34;97953.18;;;7.04;60.12
61898;BME280;47850;50.274;18.908;2023-04-22T02:19:02;97953.20;;;7.01;60.80
61898;BME280;47850;50.274;18.908;2023-04-22T02:21:30;97952.90;;;6.99;60.34
61898;BME280;47850;50.274;18.908;2023-04-22T02:23:59;97952.33;;;6.97;61.19
61898;BME280;47850;50.274;18.908;2023-04-22T02:26:26;97950.79;;;6.93;61.57
61898;BME280;47850;50.274;18.908;2023-04-22T02:28:54;97949.86;;;6.88;61.75
61898;BME280;47850;50.274;18.908;2023-04-22T02:31:22;97949.59;;;6.81;62.03
61898;BME280;47850;50.274;18.908;2023-04-22T02:33:49;97950.41;;;6.75;62.14
61898;BME280;47850;50.274;18.908;2023-04-22T02:36:17;97948.09;;;6.68;62.44
61898;BME280;47850;50.274;18.908;2023-04-22T02:38:45;97947.75;;;6.64;62.74
61898;BME280;47850;50.274;18.908;2023-04-22T02:41:12;97952.48;;;6.60;63.05
61898;BME280;47850;50.274;18.908;2023-04-22T02:43:40;97948.71;;;6.55;63.35
61898;BME280;47850;50.274;18.908;2023-04-22T02:46:12;97950.31;;;6.50;63.71
61898;BME280;47850;50.274;18.908;2023-04-22T02:48:42;97947.79;;;6.46;64.19
61898;BME280;47850;50.274;18.908;2023-04-22T02:51:10;97944.59;;;6.43;64.18
61898;BME280;47850;50.274;18.908;2023-04-22T02:53:37;97945.70;;;6.42;64.34
61898;BME280;47850;50.274;18.908;2023-04-22T02:56:05;97945.52;;;6.43;63.80
61898;BME280;47850;50.274;18.908;2023-04-22T02:58:33;97945.13;;;6.44;63.60
61898;BME280;47850;50.274;18.908;2023-04-22T03:01:01;97946.33;;;6.46;63.41
61898;BME280;47850;50.274;18.908;2023-04-22T03:03:28;97946.21;;;6.46;63.58
61898;BME280;47850;50.274;18.908;2023-04-22T03:05:56;97945.05;;;6.48;63.79
61898;BME280;47850;50.274;18.908;2023-04-22T03:08:24;97945.65;;;6.47;63.66
61898;BME280;47850;50.274;18.908;2023-04-22T03:10:52;97943.77;;;6.47;63.55
61898;BME280;47850;50.274;18.908;2023-04-22T03:13:19;97945.79;;;6.48;63.67
61898;BME280;47850;50.274;18.908;2023-04-22T03:15:47;97945.94;;;6.50;63.43
61898;BME280;47850;50.274;18.908;2023-04-22T03:18:14;97947.02;;;6.49;63.79
61898;BME280;47850;50.274;18.908;2023-04-22T03:20:42;97947.34;;;6.50;63.92
61898;BME280;47850;50.274;18.908;2023-04-22T03:23:10;97952.86;;;6.50;63.81
61898;BME280;47850;50.274;18.908;2023-04-22T03:25:37;97949.16;;;6.48;64.17
61898;BME280;47850;50.274;18.908;2023-04-22T03:28:05;97947.68;;;6.46;64.33
61898;BME280;47850;50.274;18.908;2023-04-22T03:30:33;97951.09;;;6.44;64.37
61898;BME280;47850;50.274;18.908;2023-04-22T03:33:00;97948.90;;;6.41;64.62
61898;BME280;47850;50.274;18.908;2023-04-22T03:35:28;97949.60;;;6.38;64.59
61898;BME280;47850;50.274;18.908;2023-04-22T03:37:56;97949.93;;;6.37;64.66
61898;BME280;47850;50.274;18.908;2023-04-22T03:40:23;97952.78;;;6.36;64.63
61898;BME280;47850;50.274;18.908;2023-04-22T03:42:51;97954.36;;;6.35;64.87
61898;BME280;47850;50.274;18.908;2023-04-22T03:45:19;97955.85;;;6.34;65.13
61898;BME280;47850;50.274;18.908;2023-04-22T03:47:47;97958.30;;;6.33;65.81
61898;BME280;47850;50.274;18.908;2023-04-22T03:50:14;97955.81;;;6.33;65.82
61898;BME280;47850;50.274;18.908;2023-04-22T03:52:42;97954.82;;;6.34;66.10
61898;BME280;47850;50.274;18.908;2023-04-22T03:55:09;97956.48;;;6.33;66.00
61898;BME280;47850;50.274;18.908;2023-04-22T03:57:37;97960.17;;;6.31;66.34
61898;BME280;47850;50.274;18.908;2023-04-22T04:00:05;97958.84;;;6.30;66.57
61898;BME280;47850;50.274;18.908;2023-04-22T04:02:33;97960.80;;;6.29;66.62
61898;BME280;47850;50.274;18.908;2023-04-22T04:05:00;97958.05;;;6.28;66.72
61898;BME280;47850;50.274;18.908;2023-04-22T04:07:28;97961.44;;;6.26;66.74
61898;BME280;47850;50.274;18.908;2023-04-22T04:09:55;97958.64;;;6.22;66.97
61898;BME280;47850;50.274;18.908;2023-04-22T04:12:23;97959.38;;;6.20;66.80
61898;BME280;47850;50.274;18.908;2023-04-22T04:14:51;97961.16;;;6.20;66.62
61898;BME280;47850;50.274;18.908;2023-04-22T04:17:18;97958.71;;;6.20;66.86
61898;BME280;47850;50.274;18.908;2023-04-22T04:19:46;97961.33;;;6.20;67.08
61898;BME280;47850;50.274;18.908;2023-04-22T04:22:14;97959.30;;;6.19;67.73
61898;BME280;47850;50.274;18.908;2023-04-22T04:24:42;97959.84;;;6.21;67.66
61898;BME280;47850;50.274;18.908;2023-04-22T04:27:10;97963.11;;;6.24;67.45
61898;BME280;47850;50.274;18.908;2023-04-22T04:29:38;97959.55;;;6.23;67.60
61898;BME280;47850;50.274;18.908;2023-04-22T04:32:07;97956.70;;;6.20;67.86
61898;BME280;47850;50.274;18.908;2023-04-22T04:34:36;97961.10;;;6.20;68.28
61898;BME280;47850;50.274;18.908;2023-04-22T04:37:04;97966.02;;;6.20;68.63
61898;BME280;47850;50.274;18.908;2023-04-22T04:39:31;97966.55;;;6.22;68.69
61898;BME280;47850;50.274;18.908;2023-04-22T04:42:00;97967.39;;;6.28;68.28
61898;BME280;47850;50.274;18.908;2023-04-22T04:44:27;97968.95;;;6.34;67.99
61898;BME280;47850;50.274;18.908;2023-04-22T04:46:58;97971.95;;;6.43;67.56
61898;BME280;47850;50.274;18.908;2023-04-22T04:49:25;97969.05;;;6.50;67.31
61898;BME280;47850;50.274;18.908;2023-04-22T04:51:56;97972.93;;;6.59;67.33
61898;BME280;47850;50.274;18.908;2023-04-22T04:54:24;97972.77;;;6.64;66.97
61898;BME280;47850;50.274;18.908;2023-04-22T04:56:52;97978.58;;;6.67;67.17
61898;BME280;47850;50.274;18.908;2023-04-22T04:59:19;97977.84;;;6.72;67.23
61898;BME280;47850;50.274;18.908;2023-04-22T05:01:47;97979.65;;;6.77;67.58
61898;BME280;47850;50.274;18.908;2023-04-22T05:04:15;97977.70;;;6.83;67.61
61898;BME280;47850;50.274;18.908;2023-04-22T05:06:42;97977.23;;;6.91;67.30
61898;BME280;47850;50.274;18.908;2023-04-22T05:09:10;97975.95;;;6.98;66.98
61898;BME280;47850;50.274;18.908;2023-04-22T05:11:41;97973.15;;;7.06;66.66
61898;BME280;47850;50.274;18.908;2023-04-22T05:14:08;97969.98;;;7.16;66.67
61898;BME280;47850;50.274;18.908;2023-04-22T05:16:36;97968.07;;;7.25;66.00
61898;BME280;47850;50.274;18.908;2023-04-22T05:19:04;97967.20;;;7.35;66.54
61898;BME280;47850;50.274;18.908;2023-04-22T05:21:31;97967.66;;;7.44;66.24
61898;BME280;47850;50.274;18.908;2023-04-22T05:23:59;97969.16;;;7.54;65.68
61898;BME280;47850;50.274;18.908;2023-04-22T05:26:27;97966.51;;;7.63;65.31
61898;BME280;47850;50.274;18.908;2023-04-22T05:28:55;97968.50;;;7.74;65.15
61898;BME280;47850;50.274;18.908;2023-04-22T05:31:23;97968.39;;;7.84;64.86
61898;BME280;47850;50.274;18.908;2023-04-22T05:33:50;97973.39;;;7.94;64.47
61898;BME280;47850;50.274;18.908;2023-04-22T05:36:18;97972.77;;;8.04;64.74
61898;BME280;47850;50.274;18.908;2023-04-22T05:38:45;97973.70;;;8.15;65.40
61898;BME280;47850;50.274;18.908;2023-04-22T05:41:13;97974.95;;;8.24;65.16
61898;BME280;47850;50.274;18.908;2023-04-22T05:43:41;97975.34;;;8.33;64.82
61898;BME280;47850;50.274;18.908;2023-04-22T05:46:08;97973.39;;;8.42;64.44
61898;BME280;47850;50.274;18.908;2023-04-22T05:48:36;97976.06;;;8.51;64.27
61898;BME280;47850;50.274;18.908;2023-04-22T05:51:04;97974.49;;;8.60;63.48
61898;BME280;47850;50.274;18.908;2023-04-22T05:53:32;97975.70;;;8.70;62.03
61898;BME280;47850;50.274;18.908;2023-04-22T05:55:59;97976.71;;;8.81;61.24
61898;BME280;47850;50.274;18.908;2023-04-22T05:58:27;97981.38;;;8.92;60.68
61898;BME280;47850;50.274;18.908;2023-04-22T06:00:55;97980.68;;;9.02;60.49
61898;BME280;47850;50.274;18.908;2023-04-22T06:03:22;97981.31;;;9.11;60.54
61898;BME280;47850;50.274;18.908;2023-04-22T06:05:50;97980.20;;;9.18;60.65
61898;BME280;47850;50.274;18.908;2023-04-22T06:08:18;97982.59;;;9.26;60.66
61898;BME280;47850;50.274;18.908;2023-04-22T06:10:46;97984.34;;;9.33;59.82
61898;BME280;47850;50.274;18.908;2023-04-22T06:13:13;97984.44;;;9.43;59.04
61898;BME280;47850;50.274;18.908;2023-04-22T06:15:41;97980.23;;;9.53;58.78
61898;BME280;47850;50.274;18.908;2023-04-22T06:18:08;97984.39;;;9.64;58.50
61898;BME280;47850;50.274;18.908;2023-04-22T06:20:36;97983.95;;;9.75;58.13
61898;BME280;47850;50.274;18.908;2023-04-22T06:23:04;97985.85;;;9.86;57.60
61898;BME280;47850;50.274;18.908;2023-04-22T06:25:32;97982.15;;;9.95;57.21
61898;BME280;47850;50.274;18.908;2023-04-22T06:27:59;97984.77;;;10.03;56.84
61898;BME280;47850;50.274;18.908;2023-04-22T06:30:27;97984.38;;;10.11;56.45
61898;BME280;47850;50.274;18.908;2023-04-22T06:32:55;97984.88;;;10.18;56.20
61898;BME280;47850;50.274;18.908;2023-04-22T06:35:22;97987.95;;;10.26;55.95
61898;BME280;47850;50.274;18.908;2023-04-22T06:37:50;97987.59;;;10.34;55.65
61898;BME280;47850;50.274;18.908;2023-04-22T06:40:18;97985.46;;;10.42;55.05
61898;BME280;47850;50.274;18.908;2023-04-22T06:42:46;97986.88;;;10.51;54.72
61898;BME280;47850;50.274;18.908;2023-04-22T06:45:14;97986.55;;;10.62;54.52
61898;BME280;47850;50.274;18.908;2023-04-22T06:47:42;97985.50;;;10.75;54.05
61898;BME280;47850;50.274;18.908;2023-04-22T06:50:09;97983.85;;;10.88;53.67
61898;BME280;47850;50.274;18.908;2023-04-22T06:52:37;97983.18;;;10.98;53.31
61898;BME280;47850;50.274;18.908;2023-04-22T06:55:05;97984.95;;;11.07;52.00
61898;BME280;47850;50.274;18.908;2023-04-22T06:57:33;97984.66;;;11.20;51.48
61898;BME280;47850;50.274;18.908;2023-04-22T07:00:01;97985.20;;;11.29;50.84
61898;BME280;47850;50.274;18.908;2023-04-22T07:02:28;97983.70;;;11.41;49.42
61898;BME280;47850;50.274;18.908;2023-04-22T07:04:57;97980.17;;;11.52;49.03
61898;BME280;47850;50.274;18.908;2023-04-22T07:07:24;97985.02;;;11.63;48.64
61898;BME280;47850;50.274;18.908;2023-04-22T07:09:52;97987.74;;;11.75;47.82
61898;BME280;47850;50.274;18.908;2023-04-22T07:12:20;97990.11;;;11.87;47.21
61898;BME280;47850;50.274;18.908;2023-04-22T07:14:47;97991.40;;;11.97;47.15
61898;BME280;47850;50.274;18.908;2023-04-22T07:17:15;97989.32;;;12.06;45.76
61898;BME280;47850;50.274;18.908;2023-04-22T07:19:45;97991.18;;;12.16;45.10
61898;BME280;47850;50.274;18.908;2023-04-22T07:22:13;97993.35;;;12.26;44.11
61898;BME280;47850;50.274;18.908;2023-04-22T07:24:41;97988.67;;;12.37;43.94
61898;BME280;47850;50.274;18.908;2023-04-22T07:27:08;97993.16;;;12.49;43.91
61898;BME280;47850;50.274;18.908;2023-04-22T07:29:36;97991.65;;;12.59;43.49
61898;BME280;47850;50.274;18.908;2023-04-22T07:32:04;97994.36;;;12.70;43.46
61898;BME280;47850;50.274;18.908;2023-04-22T07:34:33;97994.23;;;12.78;43.90
61898;BME280;47850;50.274;18.908;2023-04-22T07:37:00;97993.44;;;12.84;43.68
61898;BME280;47850;50.274;18.908;2023-04-22T07:39:28;97996.21;;;12.92;42.90
61898;BME280;47850;50.274;18.908;2023-04-22T07:41:56;97993.39;;;13.02;42.42
61898;BME280;47850;50.274;18.908;2023-04-22T07:44:24;97990.85;;;13.10;42.11
61898;BME280;47850;50.274;18.908;2023-04-22T07:46:52;97988.14;;;13.18;42.20
61898;BME280;47850;50.274;18.908;2023-04-22T07:49:20;97990.27;;;13.26;41.97
61898;BME280;47850;50.274;18.908;2023-04-22T07:51:50;97995.17;;;13.37;41.72
61898;BME280;47850;50.274;18.908;2023-04-22T07:54:17;97993.13;;;13.46;41.03
61898;BME280;47850;50.274;18.908;2023-04-22T07:56:45;97995.77;;;13.53;40.88
61898;BME280;47850;50.274;18.908;2023-04-22T07:59:13;97998.30;;;13.62;40.51
61898;BME280;47850;50.274;18.908;2023-04-22T08:01:41;97997.45;;;13.69;40.13
61898;BME280;47850;50.274;18.908;2023-04-22T08:04:08;97995.09;;;13.77;38.58
61898;BME280;47850;50.274;18.908;2023-04-22T08:06:36;97996.70;;;13.88;38.50
61898;BME280;47850;50.274;18.908;2023-04-22T08:09:04;97996.10;;;14.00;39.07
61898;BME280;47850;50.274;18.908;2023-04-22T08:11:32;97995.67;;;14.10;38.48
61898;BME280;47850;50.274;18.908;2023-04-22T08:14:00;97993.36;;;14.17;38.30
61898;BME280;47850;50.274;18.908;2023-04-22T08:16:27;97996.55;;;14.27;36.89
61898;BME280;47850;50.274;18.908;2023-04-22T08:18:55;97993.52;;;14.36;37.81
61898;BME280;47850;50.274;18.908;2023-04-22T08:21:24;97995.55;;;14.44;37.21
61898;BME280;47850;50.274;18.908;2023-04-22T08:23:53;97991.39;;;14.52;37.33
61898;BME280;47850;50.274;18.908;2023-04-22T08:26:21;97995.61;;;14.58;37.26
61898;BME280;47850;50.274;18.908;2023-04-22T08:28:49;98001.63;;;14.65;37.35
61898;BME280;47850;50.274;18.908;2023-04-22T08:31:16;98000.44;;;14.73;36.76
61898;BME280;47850;50.274;18.908;2023-04-22T08:33:44;97997.87;;;14.80;35.67
61898;BME280;47850;50.274;18.908;2023-04-22T08:36:12;97996.16;;;14.86;36.17
61898;BME280;47850;50.274;18.908;2023-04-22T08:38:39;97996.40;;;14.92;35.68
61898;BME280;47850;50.274;18.908;2023-04-22T08:41:07;98003.02;;;15.03;35.66
61898;BME280;47850;50.274;18.908;2023-04-22T08:43:36;98000.79;;;15.14;35.39
61898;BME280;47850;50.274;18.908;2023-04-22T08:46:04;97995.94;;;15.21;34.89
61898;BME280;47850;50.274;18.908;2023-04-22T08:48:31;98000.17;;;15.27;34.71
61898;BME280;47850;50.274;18.908;2023-04-22T08:50:59;97996.71;;;15.33;34.51
61898;BME280;47850;50.274;18.908;2023-04-22T08:53:27;97994.38;;;15.41;34.46
61898;BME280;47850;50.274;18.908;2023-04-22T08:55:55;97992.18;;;15.47;34.86
61898;BME280;47850;50.274;18.908;2023-04-22T08:58:23;97991.27;;;15.56;34.93
61898;BME280;47850;50.274;18.908;2023-04-22T09:00:50;97991.98;;;15.66;34.87
61898;BME280;47850;50.274;18.908;2023-04-22T09:03:19;97986.40;;;15.73;34.39
61898;BME280;47850;50.274;18.908;2023-04-22T09:05:47;97987.43;;;15.73;33.35
61898;BME280;47850;50.274;18.908;2023-04-22T09:08:18;97986.23;;;15.75;34.01
61898;BME280;47850;50.274;18.908;2023-04-22T09:10:46;97986.30;;;15.82;34.07
61898;BME280;47850;50.274;18.908;2023-04-22T09:13:15;97986.69;;;15.92;33.73
61898;BME280;47850;50.274;18.908;2023-04-22T09:15:43;97982.48;;;16.01;33.04
61898;BME280;47850;50.274;18.908;2023-04-22T09:18:11;97980.59;;;16.04;32.79
61898;BME280;47850;50.274;18.908;2023-04-22T09:20:40;97977.15;;;16.08;33.19
61898;BME280;47850;50.274;18.908;2023-04-22T09:23:08;97975.48;;;16.20;33.06
61898;BME280;47850;50.274;18.908;2023-04-22T09:25:38;97977.84;;;16.31;33.60
61898;BME280;47850;50.274;18.908;2023-04-22T09:28:10;97975.11;;;16.40;32.79
61898;BME280;47850;50.274;18.908;2023-04-22T09:30:37;97973.59;;;16.47;32.81
61898;BME280;47850;50.274;18.908;2023-04-22T09:33:05;97973.14;;;16.52;31.91
61898;BME280;47850;50.274;18.908;2023-04-22T09:35:34;97968.90;;;16.57;33.07
61898;BME280;47850;50.274;18.908;2023-04-22T09:38:03;97968.72;;;16.68;33.10
61898;BME280;47850;50.274;18.908;2023-04-22T09:40:32;97968.79;;;16.81;32.54
61898;BME280;47850;50.274;18.908;2023-04-22T09:43:01;97966.91;;;16.93;31.80
61898;BME280;47850;50.274;18.908;2023-04-22T09:45:30;97966.89;;;16.96;31.12
61898;BME280;47850;50.274;18.908;2023-04-22T09:47:59;97960.39;;;16.94;30.94
61898;BME280;47850;50.274;18.908;2023-04-22T09:50:27;97951.02;;;16.94;30.49
61898;BME280;47850;50.274;18.908;2023-04-22T09:52:57;97951.69;;;17.00;31.00
61898;BME280;47850;50.274;18.908;2023-04-22T09:55:26;97949.50;;;17.06;31.14
61898;BME280;47850;50.274;18.908;2023-04-22T09:57:55;97946.46;;;17.17;32.43
61898;BME280;47850;50.274;18.908;2023-04-22T10:00:24;97945.04;;;17.32;32.39
61898;BME280;47850;50.274;18.908;2023-04-22T10:02:53;97942.30;;;17.44;31.36
61898;BME280;47850;50.274;18.908;2023-04-22T10:05:21;97945.86;;;17.50;29.37
61898;BME280;47850;50.274;18.908;2023-04-22T10:07:49;97940.99;;;17.51;29.44
61898;BME280;47850;50.274;18.908;2023-04-22T10:10:17;97939.97;;;17.57;29.79
61898;BME280;47850;50.274;18.908;2023-04-22T10:12:46;97936.85;;;17.70;30.58
61898;BME280;47850;50.274;18.908;2023-04-22T10:15:15;97935.45;;;17.83;30.24
61898;BME280;47850;50.274;18.908;2023-04-22T10:17:42;97933.23;;;17.94;30.85
61898;BME280;47850;50.274;18.908;2023-04-22T10:20:12;97933.14;;;18.04;30.40
61898;BME280;47850;50.274;18.908;2023-04-22T10:22:42;97930.58;;;18.13;30.92
61898;BME280;47850;50.274;18.908;2023-04-22T10:25:20;97930.54;;;18.31;31.12
61898;BME280;47850;50.274;18.908;2023-04-22T10:27:53;97934.73;;;18.45;30.06
61898;BME280;47850;50.274;18.908;2023-04-22T10:30:28;97937.58;;;18.54;29.78
61898;BME280;47850;50.274;18.908;2023-04-22T10:33:34;97930.48;;;18.62;30.54
61898;BME280;47850;50.274;18.908;2023-04-22T10:38:33;97921.27;;;18.80;29.26
61898;BME280;47850;50.274;18.908;2023-04-22T10:41:01;97917.90;;;18.83;29.63
61898;BME280;47850;50.274;18.908;2023-04-22T10:43:44;97916.98;;;18.87;29.53
61898;BME280;47850;50.274;18.908;2023-04-22T10:57:09;97906.59;;;19.39;29.84
61898;BME280;47850;50.274;18.908;2023-04-22T10:59:41;97906.68;;;19.53;29.20
61898;BME280;47850;50.274;18.908;2023-04-22T11:02:12;97902.48;;;19.66;29.22
61898;BME280;47850;50.274;18.908;2023-04-22T11:04:40;97906.97;;;19.76;28.81
61898;BME280;47850;50.274;18.908;2023-04-22T11:09:40;97896.07;;;19.88;29.01
61898;BME280;47850;50.274;18.908;2023-04-22T11:14:54;97889.58;;;20.26;29.39
61898;BME280;47850;50.274;18.908;2023-04-22T11:17:22;97889.67;;;20.36;29.10
61898;BME280;47850;50.274;18.908;2023-04-22T11:19:50;97887.31;;;20.42;28.10
61898;BME280;47850;50.274;18.908;2023-04-22T11:22:23;97885.68;;;20.52;27.62
61898;BME280;47850;50.274;18.908;2023-04-22T11:24:57;97878.35;;;20.71;29.11
61898;BME280;47850;50.274;18.908;2023-04-22T11:27:25;97873.48;;;21.00;28.11
61898;BME280;47850;50.274;18.908;2023-04-22T11:30:03;97874.56;;;21.17;26.85
61898;BME280;47850;50.274;18.908;2023-04-22T11:32:32;97878.36;;;21.30;26.50
61898;BME280;47850;50.274;18.908;2023-04-22T11:35:03;97874.52;;;21.44;26.32
61898;BME280;47850;50.274;18.908;2023-04-22T11:37:31;97877.83;;;21.56;26.19
61898;BME280;47850;50.274;18.908;2023-04-22T11:40:07;97875.72;;;21.77;26.50
61898;BME280;47850;50.274;18.908;2023-04-22T11:42:35;97875.46;;;22.01;25.60
61898;BME280;47850;50.274;18.908;2023-04-22T11:45:04;97877.66;;;22.09;25.16
61898;BME280;47850;50.274;18.908;2023-04-22T11:47:32;97874.05;;;22.19;25.21
61898;BME280;47850;50.274;18.908;2023-04-22T11:50:01;97865.30;;;22.38;25.03
61898;BME280;47850;50.274;18.908;2023-04-22T11:52:44;97864.55;;;22.57;24.23
61898;BME280;47850;50.274;18.908;2023-04-22T11:55:13;97860.41;;;22.70;23.92
61898;BME280;47850;50.274;18.908;2023-04-22T11:57:41;97859.42;;;22.95;24.60
61898;BME280;47850;50.274;18.908;2023-04-22T12:00:09;97860.83;;;23.28;24.28
61898;BME280;47850;50.274;18.908;2023-04-22T12:02:39;97862.59;;;23.57;23.46
61898;BME280;47850;50.274;18.908;2023-04-22T12:05:10;97858.45;;;23.77;24.04
61898;BME280;47850;50.274;18.908;2023-04-22T12:07:41;97852.94;;;24.07;24.24
61898;BME280;47850;50.274;18.908;2023-04-22T12:10:09;97862.64;;;24.32;23.35
61898;BME280;47850;50.274;18.908;2023-04-22T12:12:40;97856.96;;;24.50;22.56
61898;BME280;47850;50.274;18.908;2023-04-22T12:15:08;97853.05;;;24.61;22.64
61898;BME280;47850;50.274;18.908;2023-04-22T12:17:36;97852.61;;;24.64;22.06
61898;BME280;47850;50.274;18.908;2023-04-22T12:20:04;97856.95;;;24.57;20.92
61898;BME280;47850;50.274;18.908;2023-04-22T12:22:34;97846.48;;;24.54;22.23
61898;BME280;47850;50.274;18.908;2023-04-22T12:25:02;97849.30;;;24.74;21.94
61898;BME280;47850;50.274;18.908;2023-04-22T12:27:30;97848.55;;;24.96;21.06
61898;BME280;47850;50.274;18.908;2023-04-22T12:29:58;97844.52;;;24.98;21.25
61898;BME280;47850;50.274;18.908;2023-04-22T12:32:26;97847.91;;;25.15;20.67
61898;BME280;47850;50.274;18.908;2023-04-22T12:34:53;97844.46;;;25.07;20.66
61898;BME280;47850;50.274;18.908;2023-04-22T12:37:21;97837.14;;;25.01;20.61
61898;BME280;47850;50.274;18.908;2023-04-22T12:39:49;97835.95;;;24.96;20.30
61898;BME280;47850;50.274;18.908;2023-04-22T12:42:17;97832.48;;;25.03;20.89
61898;BME280;47850;50.274;18.908;2023-04-22T12:44:45;97833.25;;;25.28;20.67
61898;BME280;47850;50.274;18.908;2023-04-22T12:47:13;97827.89;;;25.39;19.76
61898;BME280;47850;50.274;18.908;2023-04-22T12:49:41;97826.70;;;25.28;19.88
61898;BME280;47850;50.274;18.908;2023-04-22T12:52:09;97827.17;;;25.20;19.79
61898;BME280;47850;50.274;18.908;2023-04-22T12:54:36;97829.25;;;25.19;19.87
61898;BME280;47850;50.274;18.908;2023-04-22T12:57:04;97820.25;;;25.37;20.23
61898;BME280;47850;50.274;18.908;2023-04-22T12:59:32;97821.52;;;25.75;19.45
61898;BME280;47850;50.274;18.908;2023-04-22T13:02:00;97815.90;;;26.07;19.59
61898;BME280;47850;50.274;18.908;2023-04-22T13:04:28;97824.31;;;26.49;18.34
61898;BME280;47850;50.274;18.908;2023-04-22T13:06:56;97818.26;;;26.82;18.11
61898;BME280;47850;50.274;18.908;2023-04-22T13:09:23;97818.05;;;27.38;17.80
61898;BME280;47850;50.274;18.908;2023-04-22T13:11:52;97820.11;;;27.88;17.44
61898;BME280;47850;50.274;18.908;2023-04-22T13:14:19;97814.27;;;28.59;17.18
61898;BME280;47850;50.274;18.908;2023-04-22T13:16:47;97808.00;;;29.43;16.54
61898;BME280;47850;50.274;18.908;2023-04-22T13:19:15;97809.65;;;30.30;15.80